TAF PAHN
PAHN 090532Z 0906/1006 30010KT P6SM VCSH SCT030 BKN050 TEMPO 0906/0908 4SM -SHSN BKN025 FM100200 29008G15KT 5SM -SN BR OVC015 AMD NOT SKED=
METAR PAHN
WC PAHN
WS PAHN
WV PAHN